Cibolo, TX (78108)

11:08 PM CDT on May 25, 2015 (GMT -0500)
Wiedner Road Near Schlather Park | | Change Station
CLOSE
Current Station
Personal Weather Station
Location: Cibolo, TX
Elevation: 761 ft
Nearby Weather Stations

Elev 761 ft 29.59 °N, 98.23 °W | Updated 13 minutes ago

Clear
Clear
68.5 °F
Feels Like 68.5 °F
N
2.7
Wind Variable Wind from ESE

Today
High -- | Low -- °F
--% Chance of Precip.
Yesterday
High -- | Low -- °F
Precip. -- in
6:35 AM 8:24 PM
First Quarter, 54% visible
Pressure 29.86 in
Visibility 5.0 miles
Clouds Few 2000 ft
Dew Point 68 °F
Humidity 99%
Rainfall 0.66 in
Snow Depth Not available.
UV 0 out of 12
Pollen 3.20 out of 12
Air Quality Not available.
Flu Activity Sporadic
METAR KRND 260358Z AUTO 07004KT 5SM R32R/4500FT BR FEW020 21/21 A2988 RMK AO2 SLP112

More Conditions Fewer Conditions

Pressure 29.86 in
Visibility 5.0 miles
Clouds Few 2000 ft
Dew Point 68 °F
Humidity 99%
Rainfall 0.66 in
Snow Depth Not available.
UV 0 out of 12
Pollen 3.20 out of 12
Air Quality Not available.
Flu Activity Sporadic
METAR KRND 260358Z AUTO 07004KT 5SM R32R/4500FT BR FEW020 21/21 A2988 RMK AO2 SLP112

More Conditions Fewer Conditions

10-Day Weather Forecast

Almanac

Astronomy

May. 25, 2015 Rise Set
Actual Time
Civil Twilight
Nautical Twilight
Astronomical Twilight
Moon
Length of Visible Light
Length of Day
Tomorrow will be .
, % of the Moon is Illuminated

Today's Extremes

State Highs State Lows

Community

WunderPhotos

Upload Photos

1,824,277 photos uploaded!

WunderBlogs® & News

Nearby

Air Quality

  Air Quality AQ Index Pollutant
Not available.

Snow Depth

Station Depth Elevation

Earthquake Activity

City Distance Mag. Time & Date
Minimum magnitude displayed is 2.5.

Coastal Water Temperatures

Place Temperature

Stations

Nearby Weather Stations

Station Location Temp. Windchill Dew Point Humidity Wind Precip. Elev Updated Type